East Harling, United Kingdom
Current Conditions -  °F | °C
As of 10:58 PM on Saturday 25 Oct 2014 (Local Time) from EGUL Reporting Station
Overcast Overcast  
Wind Chill: 55°   Ceiling: 4000
Heat Index: 55°   Visibility: 6mi
Dew Point: 54°   Wind: 10mph
Humidity: 97%   Direction: 210°SSW
Pressure: 30.09"   Gusts: NA
Location:  52.44°N, 0.93°E
Report Text: EGUL 252158Z AUTO 21009KT 9999 OVC040 13/12 A3009 RMK AO2 SLP193 T01260121
Loading
Personal Weather Stations






























Interactive Weather Map
Tropical Storm Tracking
New forecast layout! Learn more

10-Day Weather Forecast

Advertisements
Track Severe Weather on mobile